Time;durP1;ratioP1;P1;durP2;ratioP2;P2;SDS_P1;SDS_P2;PMS_P1;PMS_P2;Temp;Humidity;BMP_temperature;BMP_pressure;BME280_temperature;BME280_humidity;BME280_pressure;Samples;Min_cycle;Max_cycle;Signal;HPM_P1;HPM_P2
2022/07/07 00:01:54;;;;;;;12.40;3.17;;;;;;;;;;5003522;28;20391;-72
2022/07/07 00:04:20;;;;;;;11.38;4.43;;;;;;;;;;5005999;28;20038;-73
2022/07/07 00:06:46;;;;;;;8.00;2.42;;;;;;;;;;5005798;28;20042;-72
2022/07/07 00:09:12;;;;;;;8.05;2.05;;;;;;;;;;5007639;28;20402;-71
2022/07/07 00:11:39;;;;;;;5.93;2.15;;;;;;;;;;5007056;28;20041;-72
2022/07/07 00:14:08;;;;;;;5.25;1.73;;;;;;;;;;5005554;28;20499;-72
2022/07/07 00:16:35;;;;;;;6.93;2.35;;;;;;;;;;5006029;28;20045;-71
2022/07/07 00:19:01;;;;;;;7.65;1.30;;;;;;;;;;5007320;28;20076;-71
2022/07/07 00:21:27;;;;;;;18.73;3.25;;;;;;;;;;4989628;28;20030;-72
2022/07/07 00:23:53;;;;;;;8.98;1.83;;;;;;;;;;5004556;28;20038;-72
2022/07/07 00:26:19;;;;;;;12.02;2.00;;;;;;;;;;5007211;28;20041;-72
2022/07/07 00:28:45;;;;;;;8.80;1.80;;;;;;;;;;5006614;28;20048;-73
2022/07/07 00:31:11;;;;;;;9.73;2.13;;;;;;;;;;5006191;28;20038;-72
2022/07/07 00:33:37;;;;;;;9.45;1.92;;;;;;;;;;5006667;28;20159;-71
2022/07/07 00:36:04;;;;;;;11.95;1.98;;;;;;;;;;5006711;28;20070;-71
2022/07/07 00:38:30;;;;;;;7.50;2.13;;;;;;;;;;5003345;28;20034;-71
2022/07/07 00:40:56;;;;;;;6.75;1.83;;;;;;;;;;4985798;28;20124;-71
2022/07/07 00:43:22;;;;;;;7.03;2.22;;;;;;;;;;5004690;28;20166;-71
2022/07/07 00:45:49;;;;;;;8.35;1.98;;;;;;;;;;5006822;28;20589;-71
2022/07/07 00:48:16;;;;;;;6.93;1.98;;;;;;;;;;5006902;28;20033;-71
2022/07/07 00:50:46;;;;;;;7.47;3.33;;;;;;;;;;5004331;28;20053;-71
2022/07/07 00:53:12;;;;;;;9.45;2.50;;;;;;;;;;5003364;28;20037;-71
2022/07/07 00:55:38;;;;;;;8.23;2.30;;;;;;;;;;5005285;28;20030;-71
2022/07/07 00:58:04;;;;;;;10.98;2.60;;;;;;;;;;5005252;28;20057;-71
2022/07/07 01:00:31;;;;;;;9.48;1.73;;;;;;;;;;5005696;28;20396;-72
2022/07/07 01:02:57;;;;;;;8.55;2.17;;;;;;;;;;4989360;28;20030;-71
2022/07/07 01:05:23;;;;;;;10.25;2.53;;;;;;;;;;5003085;28;20042;-71
2022/07/07 01:07:51;;;;;;;7.28;2.33;;;;;;;;;;5006392;28;20536;-71
2022/07/07 01:10:17;;;;;;;9.80;2.55;;;;;;;;;;5003127;28;20543;-71
2022/07/07 01:12:43;;;;;;;10.00;2.80;;;;;;;;;;5003577;28;20496;-71
2022/07/07 01:15:10;;;;;;;10.13;3.08;;;;;;;;;;5004041;28;20084;-71
2022/07/07 01:17:37;;;;;;;8.00;2.75;;;;;;;;;;5005062;28;20072;-71
2022/07/07 01:20:04;;;;;;;7.20;2.78;;;;;;;;;;5004372;28;20034;-70
2022/07/07 01:22:32;;;;;;;6.28;2.42;;;;;;;;;;5007493;28;20034;-70
2022/07/07 01:24:59;;;;;;;9.43;3.22;;;;;;;;;;5006126;28;20033;-71
2022/07/07 01:27:25;;;;;;;11.35;3.17;;;16.70;99.90;;;;;;5005649;28;20109;-70
2022/07/07 01:29:55;;;;;;;12.77;3.67;;;16.80;99.90;;;;;;5005140;28;20112;-71
2022/07/07 01:32:22;;;;;;;10.07;2.95;;;;;;;;;;5006776;28;20038;-71
2022/07/07 01:34:49;;;;;;;8.80;2.58;;;16.60;99.90;;;;;;4990067;28;20654;-71
2022/07/07 01:37:16;;;;;;;10.30;2.60;;;;;;;;;;5004513;28;20470;-71
2022/07/07 01:39:42;;;;;;;10.02;3.40;;;;;;;;;;5006894;28;20504;-72
2022/07/07 01:42:08;;;;;;;7.70;2.55;;;;;;;;;;5004603;28;20038;-70
2022/07/07 01:44:35;;;;;;;11.63;2.88;;;;;;;;;;5006007;28;20030;-71
2022/07/07 01:47:01;;;;;;;10.82;2.75;;;;;;;;;;5004423;28;20034;-71
2022/07/07 01:49:28;;;;;;;8.73;2.80;;;;;;;;;;5003720;28;20025;-70
2022/07/07 01:51:54;;;;;;;14.23;3.05;;;;;;;;;;5005306;28;20061;-71
2022/07/07 01:54:20;;;;;;;11.90;2.47;;;;;;;;;;5006835;28;20041;-71
2022/07/07 01:56:46;;;;;;;20.30;3.55;;;;;;;;;;5005448;28;20363;-71
2022/07/07 01:59:13;;;;;;;11.02;2.55;;;;;;;;;;5005524;28;20502;-71
2022/07/07 02:01:39;;;;;;;13.35;2.80;;;;;;;;;;5003874;28;20072;-71
2022/07/07 02:04:05;;;;;;;14.57;2.38;;;;;;;;;;5005869;28;20046;-71
2022/07/07 02:06:32;;;;;;;16.55;2.60;;;;;;;;;;5005544;28;20795;-71
2022/07/07 02:08:58;;;;;;;13.35;2.95;;;;;;;;;;5006392;28;20030;-71
2022/07/07 02:11:24;;;;;;;8.50;2.10;;;;;;;;;;5003291;28;21304;-72
2022/07/07 02:13:52;;;;;;;8.10;1.50;;;16.40;99.90;;;;;;5005245;28;20034;-72
2022/07/07 02:16:20;;;;;;;9.00;1.63;;;;;;;;;;5004495;28;20597;-71
2022/07/07 02:18:48;;;;;;;14.32;3.03;;;;;;;;;;4989311;28;20030;-71
2022/07/07 02:21:14;;;;;;;7.18;1.67;;;;;;;;;;5004281;28;20029;-71
2022/07/07 02:23:41;;;;;;;12.85;1.95;;;;;;;;;;5000744;28;20067;-72
2022/07/07 02:26:07;;;;;;;12.02;2.63;;;;;;;;;;5006170;28;20109;-71
2022/07/07 02:28:33;;;;;;;13.00;2.30;;;;;;;;;;5005680;28;20121;-71
2022/07/07 02:31:00;;;;;;;10.65;1.83;;;;;;;;;;5005355;28;20457;-73
2022/07/07 02:33:27;;;;;;;8.85;1.90;;;;;;;;;;5001391;28;20030;-71
2022/07/07 02:35:53;;;;;;;6.85;1.40;;;;;;;;;;5005984;28;20079;-71
2022/07/07 02:38:20;;;;;;;10.52;1.65;;;;;;;;;;5006343;28;20042;-71
2022/07/07 02:40:46;;;;;;;12.13;1.67;;;;;;;;;;5002800;28;20037;-72
2022/07/07 02:43:15;;;;;;;9.65;2.00;;;;;;;;;;5004610;28;20065;-71
2022/07/07 02:45:45;;;;;;;14.98;2.00;;;;;;;;;;4986398;28;21172;-70
2022/07/07 02:48:12;;;;;;;10.82;1.77;;;;;;;;;;5002670;28;20104;-71
2022/07/07 02:50:39;;;;;;;12.45;2.15;;;16.30;99.90;;;;;;5005196;28;20069;-70
2022/07/07 02:53:05;;;;;;;14.23;1.98;;;;;;;;;;5004607;28;20425;-70
2022/07/07 02:55:32;;;;;;;9.02;1.77;;;;;;;;;;5002074;28;20041;-71
2022/07/07 02:57:58;;;;;;;11.45;2.53;;;;;;;;;;5001970;28;20037;-72
2022/07/07 03:00:25;;;;;;;11.23;2.00;;;;;;;;;;5005848;28;20088;-71
2022/07/07 03:02:51;;;;;;;11.18;2.33;;;;;;;;;;5002621;28;20042;-71
2022/07/07 03:05:17;;;;;;;14.02;2.38;;;;;;;;;;5003561;28;21448;-71
2022/07/07 03:07:43;;;;;;;11.30;2.53;;;;;;;;;;5001578;28;20116;-71
2022/07/07 03:10:09;;;;;;;26.90;3.25;;;;;;;;;;4995992;28;20057;-71
2022/07/07 03:12:35;;;;;;;17.95;2.28;;;;;;;;;;5004279;28;20053;-72
2022/07/07 03:15:01;;;;;;;19.00;2.47;;;;;;;;;;5004072;28;20033;-71
2022/07/07 03:17:27;;;;;;;16.38;2.25;;;;;;;;;;4984821;28;20460;-71
2022/07/07 03:19:53;;;;;;;16.13;1.90;;;;;;;;;;5002526;28;20454;-71
2022/07/07 03:22:19;;;;;;;14.45;2.55;;;;;;;;;;5004914;28;20485;-71
2022/07/07 03:24:45;;;;;;;15.07;2.13;;;;;;;;;;4999002;28;20037;-71
2022/07/07 03:27:11;;;;;;;12.43;2.65;;;;;;;;;;4985964;28;20047;-72
2022/07/07 03:29:38;;;;;;;9.30;2.05;;;;;;;;;;5002959;28;20034;-72
2022/07/07 03:32:04;;;;;;;13.77;1.70;;;;;;;;;;5004671;28;20358;-69
2022/07/07 03:34:30;;;;;;;19.52;4.22;;;;;;;;;;5004486;28;20477;-72
2022/07/07 03:36:56;;;;;;;9.27;1.55;;;;;;;;;;5003827;28;20053;-72
2022/07/07 03:39:22;;;;;;;12.10;1.77;;;;;;;;;;5000143;28;20052;-72
2022/07/07 03:41:48;;;;;;;7.22;1.40;;;;;;;;;;5001376;28;20030;-72
2022/07/07 03:44:14;;;;;;;15.00;2.03;;;;;;;;;;4998633;28;20034;-72
2022/07/07 03:46:40;;;;;;;11.10;1.90;;;;;;;;;;5003602;28;20428;-72
2022/07/07 03:49:06;;;;;;;8.50;1.30;;;;;;;;;;4999714;28;20580;-73
2022/07/07 03:51:32;;;;;;;6.95;1.55;;;;;;;;;;5001966;28;20057;-72
2022/07/07 03:53:58;;;;;;;8.00;1.17;;;;;;;;;;5004798;28;20109;-72
2022/07/07 03:56:24;;;;;;;7.43;0.98;;;;;;;;;;5000845;28;20066;-71
2022/07/07 03:58:50;;;;;;;6.65;0.80;;;;;;;;;;5003719;28;20084;-72
2022/07/07 04:01:16;;;;;;;8.80;1.58;;;;;;;;;;4998266;28;20038;-73
2022/07/07 04:03:42;;;;;;;4.88;0.70;;;;;;;;;;5004517;28;20409;-71
2022/07/07 04:06:08;;;;;;;11.13;1.50;;;;;;;;;;5002803;28;20030;-73
2022/07/07 04:08:34;;;;;;;10.90;1.33;;;;;;;;;;4986062;28;20058;-71
2022/07/07 04:11:00;;;;;;;9.88;1.90;;;;;;;;;;5001880;28;20438;-72
2022/07/07 04:13:26;;;;;;;10.65;1.58;;;;;;;;;;5004952;28;20046;-71
2022/07/07 04:15:52;;;;;;;11.55;1.13;;;;;;;;;;5002725;28;20486;-72
2022/07/07 04:18:18;;;;;;;7.32;1.20;;;;;;;;;;4987401;28;20045;-71
2022/07/07 04:20:44;;;;;;;6.43;0.70;;;;;;;;;;4999860;28;20491;-71
2022/07/07 04:23:11;;;;;;;3.97;0.50;;;;;;;;;;4979060;28;20060;-73
2022/07/07 04:25:37;;;;;;;3.10;0.90;;;;;;;;;;5001925;28;20040;-72
2022/07/07 04:28:03;;;;;;;2.60;0.40;;;;;;;;;;5002121;28;20492;-72
2022/07/07 04:30:29;;;;;;;4.38;2.47;;;;;;;;;;4999964;28;20161;-72
2022/07/07 04:32:55;;;;;;;5.93;2.15;;;;;;;;;;4986869;28;20192;-75
2022/07/07 04:35:21;;;;;;;1.45;0.30;;;;;;;;;;5002483;28;20033;-73
2022/07/07 04:37:47;;;;;;;1.63;0.38;;;;;;;;;;5003083;28;20049;-72
2022/07/07 04:40:13;;;;;;;6.82;0.40;;;;;;;;;;4987048;28;20370;-72
2022/07/07 04:42:39;;;;;;;7.63;0.70;;;;;;;;;;4986688;28;20103;-74
2022/07/07 04:45:05;;;;;;;4.47;0.60;;;;;;;;;;4986003;28;20471;-72
2022/07/07 04:47:31;;;;;;;3.30;0.60;;;;;;;;;;4980553;28;20069;-72
2022/07/07 04:49:57;;;;;;;5.55;0.68;;;;;;;;;;4989589;28;20062;-72
2022/07/07 04:52:23;;;;;;;12.00;1.45;;;;;;;;;;5008773;28;20128;-71
2022/07/07 04:54:49;;;;;;;8.27;1.02;;;;;;;;;;4989516;28;20050;-72
2022/07/07 04:57:15;;;;;;;9.30;1.70;;;;;;;;;;4989745;28;20036;-71
2022/07/07 04:59:41;;;;;;;7.47;1.35;;;;;;;;;;5004560;28;20120;-72
2022/07/07 05:02:07;;;;;;;13.43;2.30;;;;;;;;;;5005448;28;20038;-72
2022/07/07 05:04:33;;;;;;;12.48;2.00;;;;;;;;;;5006809;28;20065;-71
2022/07/07 05:06:59;;;;;;;17.02;2.10;;;;;;;;;;5004613;28;20116;-71
2022/07/07 05:09:25;;;;;;;10.98;1.60;;;;;;;;;;5005539;28;20156;-71
2022/07/07 05:11:51;;;;;;;9.52;2.08;;;;;;;;;;5003956;28;20396;-71
2022/07/07 05:14:17;;;;;;;19.25;4.10;;;;;;;;;;5007453;28;20042;-72
2022/07/07 05:16:43;;;;;;;25.95;4.78;;;;;;;;;;5004570;28;20050;-73
2022/07/07 05:19:09;;;;;;;21.77;5.15;;;;;;;;;;5007438;28;20044;-69
2022/07/07 05:21:35;;;;;;;12.30;2.22;;;;;;;;;;5005858;28;20052;-69
2022/07/07 05:24:01;;;;;;;11.10;2.38;;;;;;;;;;5006939;28;20057;-69
2022/07/07 05:26:27;;;;;;;14.88;1.98;;;;;;;;;;5005548;28;20042;-70
2022/07/07 05:28:53;;;;;;;12.02;1.80;;;;;;;;;;5004353;28;20038;-68
2022/07/07 05:31:19;;;;;;;12.48;1.70;;;;;;;;;;5005855;28;20044;-69
2022/07/07 05:33:45;;;;;;;11.07;2.42;;;;;;;;;;5004136;28;20037;-68
2022/07/07 05:36:11;;;;;;;14.65;1.85;;;;;;;;;;5004847;28;21871;-68
2022/07/07 05:38:37;;;;;;;11.32;2.08;;;;;;;;;;5005818;28;20113;-68
2022/07/07 05:41:04;;;;;;;11.75;2.30;;;16.00;99.90;;;;;;5005614;28;20034;-69
2022/07/07 05:43:30;;;;;;;10.10;1.98;;;;;;;;;;5006953;28;20041;-70
2022/07/07 05:45:56;;;;;;;16.42;2.08;;;;;;;;;;5005975;28;20112;-69
2022/07/07 05:48:22;;;;;;;13.35;1.95;;;;;;;;;;5003089;28;20126;-70
2022/07/07 05:50:48;;;;;;;11.32;1.55;;;;;;;;;;5003741;28;20022;-69
2022/07/07 05:53:14;;;;;;;12.32;1.35;;;;;;;;;;5003286;28;20069;-69
2022/07/07 05:55:40;;;;;;;7.35;1.58;;;;;;;;;;5005536;28;20033;-69
2022/07/07 05:58:06;;;;;;;9.75;1.45;;;;;;;;;;5005750;28;20026;-69
2022/07/07 06:00:33;;;;;;;5.45;1.05;;;;;;;;;;4988153;28;20050;-70
2022/07/07 06:02:59;;;;;;;8.18;1.50;;;;;;;;;;5003251;28;20374;-69
2022/07/07 06:05:25;;;;;;;10.93;1.55;;;;;;;;;;5005227;28;20042;-69
2022/07/07 06:07:51;;;;;;;6.43;1.55;;;;;;;;;;5004515;28;20042;-69
2022/07/07 06:10:17;;;;;;;8.32;1.48;;;;;;;;;;5003258;28;20034;-69
2022/07/07 06:12:43;;;;;;;6.65;1.00;;;;;;;;;;5005374;28;20034;-70
2022/07/07 06:15:09;;;;;;;5.40;1.00;;;;;;;;;;5007030;28;20532;-69
2022/07/07 06:17:35;;;;;;;6.50;1.25;;;;;;;;;;5005679;28;20495;-69
2022/07/07 06:20:02;;;;;;;9.35;0.90;;;;;;;;;;5004864;28;20452;-70
2022/07/07 06:22:28;;;;;;;4.82;0.90;;;;;;;;;;4986096;28;20116;-69
2022/07/07 06:24:54;;;;;;;6.63;0.85;;;;;;;;;;5006038;28;20486;-70
2022/07/07 06:27:20;;;;;;;7.57;1.10;;;;;;;;;;4989357;28;20022;-71
2022/07/07 06:29:47;;;;;;;10.13;1.23;;;;;;;;;;5004171;28;20042;-70
2022/07/07 06:32:16;;;;;;;10.73;1.42;;;;;;;;;;4987530;28;20030;-70
2022/07/07 06:34:43;;;;;;;5.45;0.95;;;;;;;;;;5005598;28;20099;-70
2022/07/07 06:37:09;;;;;;;13.98;1.77;;;;;;;;;;5003520;28;20026;-70
2022/07/07 06:39:35;;;;;;;5.45;0.85;;;;;;;;;;5004528;28;20034;-69
2022/07/07 06:42:01;;;;;;;8.63;1.08;;;;;;;;;;4996834;28;20038;-70
2022/07/07 06:44:30;;;;;;;10.82;2.17;;;;;;;;;;5003402;28;20465;-70
2022/07/07 06:46:58;;;;;;;3.72;0.70;;;;;;;;;;5005734;28;20124;-71
2022/07/07 06:49:24;;;;;;;6.47;0.88;;;;;;;;;;4986535;28;20034;-70
2022/07/07 06:51:50;;;;;;;4.80;0.80;;;;;;;;;;5001606;28;20559;-70
2022/07/07 06:54:16;;;;;;;9.07;1.00;;;;;;;;;;5006214;28;20084;-71
2022/07/07 06:56:42;;;;;;;5.13;0.68;;;;;;;;;;5006114;28;20046;-71
2022/07/07 06:59:08;;;;;;;3.80;0.70;;;;;;;;;;5002160;28;20093;-71
2022/07/07 07:01:34;;;;;;;4.78;1.27;;;;;;;;;;4986126;28;20045;-70
2022/07/07 07:04:01;;;;;;;4.13;0.77;;;18.50;99.90;;;;;;5002530;28;20068;-70
2022/07/07 07:06:30;;;;;;;4.78;1.00;;;;;;;;;;5004701;28;20042;-72
2022/07/07 07:08:57;;;;;;;6.72;1.10;;;;;;;;;;4985426;28;20041;-71
2022/07/07 07:11:23;;;;;;;6.00;1.05;;;;;;;;;;5006751;28;20052;-71
2022/07/07 07:13:49;;;;;;;9.15;1.08;;;;;;;;;;5005660;28;20173;-70
2022/07/07 07:16:16;;;;;;;11.77;1.80;;;;;;;;;;5000539;28;20083;-70
2022/07/07 07:18:42;;;;;;;7.95;1.83;;;;;;;;;;5001486;28;20419;-69
2022/07/07 07:21:08;;;;;;;10.38;1.65;;;;;;;;;;5004627;28;20053;-71
2022/07/07 07:23:34;;;;;;;7.68;1.30;;;;;;;;;;4999928;28;20080;-70
2022/07/07 07:26:00;;;;;;;8.68;1.02;;;;;;;;;;4996997;28;20042;-70
2022/07/07 07:28:26;;;;;;;4.35;1.10;;;;;;;;;;4997745;28;20053;-72
2022/07/07 07:30:52;;;;;;;6.93;1.42;;;;;;;;;;5005651;28;20033;-72
2022/07/07 07:33:18;;;;;;;8.98;1.35;;;;;;;;;;4988475;28;20509;-71
2022/07/07 07:35:44;;;;;;;6.65;1.25;;;;;;;;;;5003107;28;20027;-72
2022/07/07 07:38:10;;;;;;;10.27;1.77;;;;;;;;;;5002600;28;20135;-71
2022/07/07 07:40:36;;;;;;;10.57;3.20;;;;;;;;;;5007635;28;20125;-72
2022/07/07 07:43:02;;;;;;;25.75;15.00;;;;;;;;;;5008536;28;20053;-73
2022/07/07 07:45:28;;;;;;;4.03;0.90;;;;;;;;;;4984934;28;20091;-72
2022/07/07 07:47:56;;;;;;;3.08;0.60;;;;;;;;;;5004612;28;20033;-75
2022/07/07 07:50:22;;;;;;;7.60;0.70;;;;;;;;;;4988198;28;20121;-72
2022/07/07 07:52:49;;;;;;;3.90;0.95;;;;;;;;;;5002405;28;20062;-73
2022/07/07 07:55:16;;;;;;;5.63;0.70;;;;;;;;;;5005523;28;20053;-72
2022/07/07 07:57:42;;;;;;;3.53;0.65;;;;;;;;;;5003361;28;20401;-72
2022/07/07 08:00:10;;;;;;;4.75;1.35;;;;;;;;;;5004676;28;20088;-75
2022/07/07 08:02:36;;;;;;;5.15;1.55;;;;;;;;;;4996681;28;20029;-73
2022/07/07 08:05:01;;;;;;;5.13;0.70;;;;;;;;;;4997594;28;20572;-74
2022/07/07 08:07:28;;;;;;;6.97;1.80;;;;;;;;;;4998927;28;20042;-73
2022/07/07 08:09:54;;;;;;;7.75;2.00;;;;;;;;;;5000427;28;20290;-73
2022/07/07 08:12:20;;;;;;;3.28;0.90;;;;;;;;;;5002460;28;20044;-72
2022/07/07 08:14:46;;;;;;;4.95;1.10;;;;;;;;;;5001434;28;20045;-72
2022/07/07 08:17:12;;;;;;;7.15;0.98;;;;;;;;;;5002786;28;20049;-73
2022/07/07 08:19:38;;;;;;;8.90;1.45;;;;;;;;;;5000633;28;20041;-72
2022/07/07 08:22:04;;;;;;;9.82;1.23;;;;;;;;;;5002862;28;20482;-72
2022/07/07 08:24:30;;;;;;;7.47;1.35;;;;;;;;;;5004007;28;20598;-73
2022/07/07 08:26:56;;;;;;;7.45;1.10;;;;;;;;;;5004328;28;20034;-73
2022/07/07 08:29:22;;;;;;;8.95;1.42;;;;;;;;;;5004961;28;20045;-72
2022/07/07 08:31:48;;;;;;;11.77;1.70;;;;;;;;;;5007246;28;20088;-73
2022/07/07 08:34:14;;;;;;;11.45;1.55;;;;;;;;;;4989683;28;20037;-72
2022/07/07 08:36:40;;;;;;;10.70;2.97;;;;;;;;;;5003761;28;20394;-70
2022/07/07 08:39:07;;;;;;;10.00;3.80;;;18.10;99.90;;;;;;5011351;28;20407;-70
2022/07/07 08:41:33;;;;;;;8.75;2.92;;;;;;;;;;5012648;28;20038;-70
2022/07/07 08:43:59;;;;;;;9.85;1.63;;;;;;;;;;5012489;28;20037;-70
2022/07/07 08:46:25;;;;;;;8.77;0.90;;;;;;;;;;4994747;28;20081;-71
2022/07/07 08:48:53;;;;;;;6.40;2.03;;;;;;;;;;5007220;28;20041;-71
2022/07/07 08:51:20;;;;;;;13.18;1.73;;;;;;;;;;4989476;28;20061;-71
2022/07/07 08:53:47;;;;;;;5.75;1.25;;;;;;;;;;5005184;28;20172;-72
2022/07/07 08:56:13;;;;;;;8.55;1.63;;;;;;;;;;5005461;28;22195;-71
2022/07/07 08:58:39;;;;;;;6.38;1.33;;;;;;;;;;5006169;28;20038;-71
2022/07/07 09:01:06;;;;;;;7.82;1.10;;;19.00;99.90;;;;;;5008652;28;20038;-72
2022/07/07 09:03:33;;;;;;;5.22;1.30;;;;;;;;;;5007350;28;20065;-71
2022/07/07 09:05:59;;;;;;;8.75;1.42;;;;;;;;;;5006484;28;20280;-73
2022/07/07 09:08:26;;;;;;;11.32;2.08;;;;;;;;;;5005629;28;20052;-71
2022/07/07 09:10:53;;;;;;;6.53;1.52;;;;;;;;;;5006478;28;20041;-71
2022/07/07 09:13:29;;;;;;;6.30;1.30;;;18.00;99.90;;;;;;5006333;28;20022;-73
2022/07/07 09:15:57;;;;;;;4.50;1.10;;;;;;;;;;5001963;28;20062;-71
2022/07/07 09:18:35;;;;;;;7.82;1.20;;;;;;;;;;5001164;28;20037;-71
2022/07/07 09:21:03;;;;;;;4.13;0.93;;;;;;;;;;5005859;28;20038;-71
2022/07/07 09:23:29;;;;;;;9.43;1.38;;;;;;;;;;5004084;28;20073;-72
2022/07/07 09:25:55;;;;;;;5.55;1.27;;;;;;;;;;4991348;28;20381;-72
2022/07/07 09:28:21;;;;;;;5.68;0.93;;;;;;;;;;4999865;28;20040;-71
2022/07/07 09:30:48;;;;;;;5.22;1.10;;;18.80;99.90;;;;;;5006257;28;20026;-71
2022/07/07 09:33:14;;;;;;;4.88;1.02;;;;;;;;;;4987488;28;20042;-71
2022/07/07 09:38:29;;;;;;;9.02;0.95;;;18.40;99.90;;;;;;5004677;28;20045;-71
2022/07/07 09:41:05;;;;;;;10.75;1.77;;;18.40;99.90;;;;;;5007009;28;20085;-71
2022/07/07 09:43:35;;;;;;;4.18;0.77;;;;;;;;;;5004565;28;20026;-71
2022/07/07 09:46:11;;;;;;;6.70;1.27;;;;;;;;;;5004346;28;20030;-73
2022/07/07 09:48:40;;;;;;;8.15;1.05;;;18.20;99.90;;;;;;5006366;28;20025;-72
2022/07/07 09:51:15;;;;;;;9.68;1.38;;;;;;;;;;4995478;28;20172;-72
2022/07/07 09:53:57;;;;;;;6.95;1.20;;;17.90;99.90;;;;;;5003091;28;20504;-72
2022/07/07 09:56:24;;;;;;;3.72;0.60;;;;;;;;;;5002809;28;20045;-72
2022/07/07 09:58:52;;;;;;;3.25;0.80;;;;;;;;;;5006084;28;20095;-74
2022/07/07 10:01:18;;;;;;;6.05;1.50;;;;;;;;;;5005114;28;20563;-73
2022/07/07 10:03:44;;;;;;;4.68;0.82;;;;;;;;;;5005191;28;20038;-72
2022/07/07 10:06:13;;;;;;;8.40;1.45;;;;;;;;;;4990018;28;20068;-72
2022/07/07 10:08:44;;;;;;;8.07;1.00;;;19.30;99.90;;;;;;5003129;28;20113;-72
2022/07/07 10:11:13;;;;;;;5.05;1.20;;;19.10;99.90;;;;;;4999621;28;20033;-73
2022/07/07 10:13:41;;;;;;;7.82;1.48;;;;;;;;;;5003103;28;20041;-72
2022/07/07 10:16:08;;;;;;;11.50;1.33;;;;;;;;;;5002168;28;20116;-72
2022/07/07 10:18:35;;;;;;;12.88;2.50;;;;;;;;;;4988042;28;20576;-70
2022/07/07 10:21:01;;;;;;;10.63;1.73;;;;;;;;;;5012574;28;20076;-71
2022/07/07 10:23:27;;;;;;;12.68;1.33;;;;;;;;;;5009996;28;20134;-73
2022/07/07 10:26:00;;;;;;;12.00;1.70;;;;;;;;;;5001233;28;20109;-71
2022/07/07 10:28:54;;;;;;;9.40;1.90;;;17.70;99.90;;;;;;5006483;28;20030;-72
2022/07/07 10:31:24;;;;;;;9.73;1.40;;;;;;;;;;4984333;28;20354;-71
2022/07/07 10:34:14;;;;;;;11.57;2.08;;;17.60;99.90;;;;;;4993595;28;20030;-72
2022/07/07 10:36:52;;;;;;;8.50;1.45;;;;;;;;;;5003403;28;20425;-72
2022/07/07 10:39:21;;;;;;;15.63;1.92;;;;;;;;;;5012224;28;20053;-71
2022/07/07 10:41:57;;;;;;;12.98;2.53;;;;;;;;;;5011097;28;20367;-72
2022/07/07 10:44:24;;;;;;;9.85;2.33;;;;;;;;;;5005737;28;20069;-72
2022/07/07 10:46:59;;;;;;;20.00;2.72;;;;;;;;;;5009663;28;20052;-72
2022/07/07 10:49:38;;;;;;;13.15;2.35;;;;;;;;;;5007300;28;20359;-72
2022/07/07 10:52:09;;;;;;;13.38;2.63;;;;;;;;;;4987944;28;20113;-71
2022/07/07 10:54:47;;;;;;;15.02;2.88;;;17.80;99.90;;;;;;5011729;28;20442;-72
2022/07/07 10:57:15;;;;;;;19.90;3.60;;;;;;;;;;5013577;28;20030;-72
2022/07/07 10:59:58;;;;;;;27.38;5.20;;;;;;;;;;5009020;28;20109;-71
2022/07/07 11:02:31;;;;;;;18.23;3.60;;;;;;;;;;5002866;28;20121;-71
2022/07/07 11:04:57;;;;;;;20.98;2.95;;;;;;;;;;5002801;28;20073;-71
2022/07/07 11:07:24;;;;;;;14.40;2.30;;;18.00;99.90;;;;;;5001992;28;20878;-72
2022/07/07 11:10:01;;;;;;;12.45;1.85;;;;;;;;;;5000906;28;20037;-73
2022/07/07 11:12:40;;;;;;;18.05;2.08;;;18.00;99.90;;;;;;5005779;28;20092;-72
2022/07/07 11:15:15;;;;;;;14.10;3.40;;;;;;;;;;5001557;28;20038;-72
2022/07/07 11:17:45;;;;;;;17.10;2.45;;;;;;;;;;5003549;28;20073;-71
2022/07/07 11:20:15;;;;;;;14.15;1.75;;;;;;;;;;5005039;28;20029;-71
2022/07/07 11:22:45;;;;;;;10.80;2.08;;;;;;;;;;5001931;28;20030;-73
2022/07/07 11:25:14;;;;;;;18.20;2.50;;;;;;;;;;5004361;28;20192;-71
2022/07/07 11:27:41;;;;;;;17.52;2.85;;;;;;;;;;5008392;28;20045;-71
2022/07/07 11:30:07;;;;;;;16.35;2.60;;;;;;;;;;5008485;28;20029;-71
2022/07/07 11:32:37;;;;;;;8.65;1.88;;;;;;;;;;5011283;28;20140;-71
2022/07/07 11:35:07;;;;;;;14.45;2.15;;;;;;;;;;4999807;28;20112;-70
2022/07/07 11:37:34;;;;;;;8.52;1.73;;;;;;;;;;5009062;28;20100;-71
2022/07/07 11:40:00;;;;;;;10.30;1.60;;;19.40;99.90;;;;;;5009454;28;20441;-71
2022/07/07 11:42:27;;;;;;;13.75;2.28;;;;;;;;;;5008902;28;20501;-71
2022/07/07 11:44:53;;;;;;;10.55;1.90;;;;;;;;;;5009970;28;20096;-71
2022/07/07 11:47:18;;;;;;;12.90;2.47;;;19.10;99.90;;;;;;5003352;28;20029;-70
2022/07/07 11:49:45;;;;;;;12.45;2.15;;;;;;;;;;5003155;28;20112;-71
2022/07/07 11:52:15;;;;;;;17.52;2.00;;;19.00;99.90;;;;;;5009233;28;20459;-70
2022/07/07 11:54:48;;;;;;;15.27;2.22;;;19.00;99.90;;;;;;5010853;28;20044;-70
2022/07/07 11:57:26;;;;;;;8.93;1.88;;;;;;;;;;5010649;28;20578;-70
2022/07/07 11:59:52;;;;;;;12.60;2.08;;;19.40;99.90;;;;;;4991150;28;20033;-70
2022/07/07 12:02:19;;;;;;;13.13;3.08;;;;;;;;;;5009310;28;20029;-70
2022/07/07 12:04:45;;;;;;;10.25;1.75;;;19.10;99.90;;;;;;5008772;28;20429;-70
2022/07/07 12:07:11;;;;;;;17.10;3.08;;;;;;;;;;5003032;28;20039;-70
2022/07/07 12:09:37;;;;;;;17.15;3.35;;;;;;;;;;5004125;28;20022;-72
2022/07/07 12:12:04;;;;;;;14.75;2.45;;;;;;;;;;5011691;28;20034;-69
2022/07/07 12:14:31;;;;;;;16.42;3.15;;;;;;;;;;5008669;28;20042;-69
2022/07/07 12:16:57;;;;;;;20.13;3.22;;;;;;;;;;5009134;28;20115;-69
2022/07/07 12:19:23;;;;;;;14.13;3.20;;;;;;;;;;4992908;28;20465;-70
2022/07/07 12:21:51;;;;;;;15.43;2.47;;;18.40;99.90;;;;;;4975169;28;20581;-70
2022/07/07 12:24:25;;;;;;;17.85;3.03;;;18.00;99.90;;;;;;5000296;28;20194;-70
2022/07/07 12:26:51;;;;;;;11.65;2.78;;;;;;;;;;5011047;28;20037;-70
2022/07/07 12:29:18;;;;;;;14.02;2.40;;;18.00;99.90;;;;;;5010662;28;20076;-70
2022/07/07 12:31:45;;;;;;;14.13;2.38;;;;;;;;;;5004985;28;20377;-70
2022/07/07 12:34:15;;;;;;;18.25;3.08;;;;;;;;;;5006083;28;20143;-70
2022/07/07 12:36:41;;;;;;;15.80;2.85;;;;;;;;;;4998542;28;20502;-70
2022/07/07 12:39:07;;;;;;;12.77;1.90;;;18.70;99.90;;;;;;5001067;28;20034;-70
2022/07/07 12:41:38;;;;;;;17.00;3.22;;;;;;;;;;5002944;28;20104;-70
2022/07/07 12:44:21;;;;;;;16.45;2.78;;;18.70;99.90;;;;;;4989612;28;20034;-70
2022/07/07 12:46:47;;;;;;;13.85;3.03;;;;;;;;;;5002075;28;20136;-70
2022/07/07 12:49:13;;;;;;;12.02;2.17;;;;;;;;;;5005851;28;20068;-70
2022/07/07 12:51:42;;;;;;;12.50;2.35;;;;;;;;;;5008353;28;20364;-71
2022/07/07 12:54:20;;;;;;;12.75;2.65;;;18.50;99.90;;;;;;5010793;28;20038;-70
2022/07/07 12:56:46;;;;;;;11.40;2.15;;;;;;;;;;5008974;28;20029;-70
2022/07/07 12:59:18;;;;;;;8.95;1.55;;;;;;;;;;5009302;28;20037;-70
2022/07/07 13:01:49;;;;;;;13.50;2.53;;;;;;;;;;5001089;28;20489;-70
2022/07/07 13:04:15;;;;;;;29.92;13.60;;;;;;;;;;4997391;28;20034;-68
2022/07/07 13:06:41;;;;;;;10.90;2.45;;;;;;;;;;5008626;28;20037;-71
2022/07/07 13:09:07;;;;;;;8.82;2.22;;;;;;;;;;5008299;28;20038;-69
2022/07/07 13:11:33;;;;;;;15.15;2.53;;;;;;;;;;4994719;28;20446;-69
2022/07/07 13:13:59;;;;;;;12.55;2.00;;;;;;;;;;4992576;28;20123;-70
2022/07/07 13:16:25;;;;;;;11.63;2.13;;;;;;;;;;5010004;28;20049;-70
2022/07/07 13:18:51;;;;;;;11.38;1.83;;;;;;;;;;5016081;28;20041;-70
2022/07/07 13:21:17;;;;;;;7.35;1.63;;;;;;;;;;5011391;28;20033;-70
2022/07/07 13:23:43;;;;;;;9.77;1.67;;;;;;;;;;5013798;28;20549;-70
2022/07/07 13:26:11;;;;;;;7.20;1.42;;;;;;;;;;5012772;28;20037;-69
2022/07/07 13:28:37;;;;;;;9.10;1.83;;;;;;;;;;5013886;28;20065;-69
2022/07/07 13:31:03;;;;;;;11.77;1.75;;;18.50;99.90;;;;;;5004445;28;20026;-70
2022/07/07 13:33:29;;;;;;;11.80;2.17;;;;;;;;;;4995361;28;20371;-70
2022/07/07 13:35:56;;;;;;;10.82;1.60;;;18.60;99.90;;;;;;5013659;28;20030;-69
2022/07/07 13:38:22;;;;;;;7.05;1.52;;;;;;;;;;5012276;28;20070;-70
2022/07/07 13:40:48;;;;;;;6.63;1.23;;;;;;;;;;4995107;28;20121;-70
2022/07/07 13:43:15;;;;;;;11.25;1.42;;;18.80;99.90;;;;;;5012236;28;20018;-70
2022/07/07 13:45:42;;;;;;;15.30;1.58;;;;;;;;;;5008826;28;20064;-72
2022/07/07 13:48:08;;;;;;;11.13;1.67;;;;;;;;;;5012034;28;20470;-70
2022/07/07 13:50:34;;;;;;;11.05;1.42;;;;;;;;;;5011119;28;20544;-71
2022/07/07 13:53:00;;;;;;;9.95;1.40;;;;;;;;;;5022106;28;20385;-70
2022/07/07 13:55:26;;;;;;;13.45;2.60;;;;;;;;;;4991908;28;20038;-70
2022/07/07 13:57:52;;;;;;;6.57;1.33;;;;;;;;;;4993862;28;20081;-71
2022/07/07 14:00:18;;;;;;;9.23;1.73;;;;;;;;;;5001417;28;20026;-70
2022/07/07 14:02:46;;;;;;;18.17;1.58;;;19.30;99.90;;;;;;4999483;28;20481;-71
2022/07/07 14:05:13;;;;;;;14.38;1.65;;;19.40;99.90;;;;;;5012664;28;20038;-70
2022/07/07 14:07:40;;;;;;;8.60;1.70;;;;;;;;;;5013223;28;20369;-70
2022/07/07 14:10:06;;;;;;;7.40;1.70;;;;;;;;;;5010081;28;20111;-71
2022/07/07 14:12:33;;;;;;;8.57;2.10;;;;;;;;;;5013109;28;20034;-70
2022/07/07 14:14:59;;;;;;;7.72;1.27;;;;;;;;;;5011798;28;20036;-70
2022/07/07 14:17:27;;;;;;;7.65;1.30;;;;;;;;;;5001971;28;20420;-71
2022/07/07 14:19:53;;;;;;;7.07;1.50;;;;;;;;;;5012726;28;20117;-71
2022/07/07 14:22:19;;;;;;;7.22;1.85;;;;;;;;;;4994493;28;20044;-71
2022/07/07 14:24:46;;;;;;;13.88;1.55;;;;;;;;;;5012034;28;20033;-70